sensor_id;sensor_type;location;lat;lon;timestamp;P1;durP1;ratioP1;P2;durP2;ratioP2
4517;SDS011;2271;49.464;11.070;2023-04-07T00:01:00;8.53;;;6.20;;
4517;SDS011;2271;49.464;11.070;2023-04-07T00:03:25;11.17;;;6.07;;
4517;SDS011;2271;49.464;11.070;2023-04-07T00:05:51;13.83;;;5.80;;
4517;SDS011;2271;49.464;11.070;2023-04-07T00:08:16;10.30;;;5.80;;
4517;SDS011;2271;49.464;11.070;2023-04-07T00:10:42;8.07;;;5.63;;
4517;SDS011;2271;49.464;11.070;2023-04-07T00:13:08;7.80;;;5.27;;
4517;SDS011;2271;49.464;11.070;2023-04-07T00:15:33;7.23;;;4.87;;
4517;SDS011;2271;49.464;11.070;2023-04-07T00:17:59;7.53;;;5.27;;
4517;SDS011;2271;49.464;11.070;2023-04-07T00:20:25;11.47;;;5.73;;
4517;SDS011;2271;49.464;11.070;2023-04-07T00:22:50;8.73;;;5.43;;
4517;SDS011;2271;49.464;11.070;2023-04-07T00:25:16;9.93;;;6.07;;
4517;SDS011;2271;49.464;11.070;2023-04-07T00:27:42;6.27;;;5.17;;
4517;SDS011;2271;49.464;11.070;2023-04-07T00:30:07;8.17;;;5.53;;
4517;SDS011;2271;49.464;11.070;2023-04-07T00:32:33;9.07;;;5.40;;
4517;SDS011;2271;49.464;11.070;2023-04-07T00:34:59;6.30;;;5.17;;
4517;SDS011;2271;49.464;11.070;2023-04-07T00:37:25;7.33;;;4.43;;
4517;SDS011;2271;49.464;11.070;2023-04-07T00:39:51;7.30;;;5.17;;
4517;SDS011;2271;49.464;11.070;2023-04-07T00:42:17;5.50;;;4.83;;
4517;SDS011;2271;49.464;11.070;2023-04-07T00:44:43;6.90;;;4.57;;
4517;SDS011;2271;49.464;11.070;2023-04-07T00:47:09;9.33;;;6.00;;
4517;SDS011;2271;49.464;11.070;2023-04-07T00:49:38;8.00;;;5.37;;
4517;SDS011;2271;49.464;11.070;2023-04-07T00:52:04;9.73;;;5.77;;
4517;SDS011;2271;49.464;11.070;2023-04-07T00:54:31;9.00;;;5.47;;
4517;SDS011;2271;49.464;11.070;2023-04-07T00:56:56;9.07;;;6.10;;
4517;SDS011;2271;49.464;11.070;2023-04-07T00:59:22;10.47;;;6.33;;
4517;SDS011;2271;49.464;11.070;2023-04-07T01:02:02;10.40;;;5.80;;
4517;SDS011;2271;49.464;11.070;2023-04-07T01:04:40;12.50;;;6.53;;
4517;SDS011;2271;49.464;11.070;2023-04-07T01:10:34;9.10;;;6.20;;
4517;SDS011;2271;49.464;11.070;2023-04-07T01:13:09;8.73;;;6.20;;
4517;SDS011;2271;49.464;11.070;2023-04-07T01:15:56;8.77;;;6.00;;
4517;SDS011;2271;49.464;11.070;2023-04-07T01:18:34;7.83;;;6.13;;
4517;SDS011;2271;49.464;11.070;2023-04-07T01:21:03;10.30;;;6.33;;
4517;SDS011;2271;49.464;11.070;2023-04-07T01:26:17;9.17;;;6.50;;
4517;SDS011;2271;49.464;11.070;2023-04-07T01:31:51;10.10;;;6.10;;
4517;SDS011;2271;49.464;11.070;2023-04-07T01:34:19;7.47;;;5.67;;
4517;SDS011;2271;49.464;11.070;2023-04-07T01:36:47;9.47;;;6.10;;
4517;SDS011;2271;49.464;11.070;2023-04-07T01:39:15;9.20;;;6.20;;
4517;SDS011;2271;49.464;11.070;2023-04-07T01:41:41;7.63;;;5.90;;
4517;SDS011;2271;49.464;11.070;2023-04-07T01:44:08;13.23;;;6.93;;
4517;SDS011;2271;49.464;11.070;2023-04-07T01:46:35;8.87;;;6.13;;
4517;SDS011;2271;49.464;11.070;2023-04-07T01:49:01;8.47;;;5.43;;
4517;SDS011;2271;49.464;11.070;2023-04-07T01:51:28;6.70;;;4.73;;
4517;SDS011;2271;49.464;11.070;2023-04-07T01:53:55;11.17;;;6.03;;
4517;SDS011;2271;49.464;11.070;2023-04-07T01:56:21;15.80;;;5.97;;
4517;SDS011;2271;49.464;11.070;2023-04-07T01:58:46;7.40;;;6.07;;
4517;SDS011;2271;49.464;11.070;2023-04-07T02:01:12;11.77;;;6.30;;
4517;SDS011;2271;49.464;11.070;2023-04-07T02:03:46;8.07;;;6.30;;
4517;SDS011;2271;49.464;11.070;2023-04-07T02:06:18;9.93;;;5.70;;
4517;SDS011;2271;49.464;11.070;2023-04-07T02:08:47;8.87;;;5.93;;
4517;SDS011;2271;49.464;11.070;2023-04-07T02:11:17;9.73;;;5.87;;
4517;SDS011;2271;49.464;11.070;2023-04-07T02:13:46;10.10;;;5.97;;
4517;SDS011;2271;49.464;11.070;2023-04-07T02:16:11;13.47;;;6.37;;
4517;SDS011;2271;49.464;11.070;2023-04-07T02:18:39;8.50;;;5.80;;
4517;SDS011;2271;49.464;11.070;2023-04-07T02:21:05;14.80;;;6.70;;
4517;SDS011;2271;49.464;11.070;2023-04-07T02:23:34;10.23;;;5.13;;
4517;SDS011;2271;49.464;11.070;2023-04-07T02:26:00;11.20;;;6.13;;
4517;SDS011;2271;49.464;11.070;2023-04-07T02:28:25;9.93;;;5.77;;
4517;SDS011;2271;49.464;11.070;2023-04-07T02:30:51;6.80;;;5.90;;
4517;SDS011;2271;49.464;11.070;2023-04-07T02:33:16;10.57;;;5.40;;
4517;SDS011;2271;49.464;11.070;2023-04-07T02:35:42;13.23;;;6.43;;
4517;SDS011;2271;49.464;11.070;2023-04-07T02:38:08;11.30;;;5.50;;
4517;SDS011;2271;49.464;11.070;2023-04-07T02:40:33;6.80;;;5.57;;
4517;SDS011;2271;49.464;11.070;2023-04-07T02:43:00;9.93;;;6.13;;
4517;SDS011;2271;49.464;11.070;2023-04-07T02:45:26;9.03;;;6.27;;
4517;SDS011;2271;49.464;11.070;2023-04-07T02:47:52;8.47;;;6.30;;
4517;SDS011;2271;49.464;11.070;2023-04-07T02:50:18;10.23;;;5.73;;
4517;SDS011;2271;49.464;11.070;2023-04-07T02:52:43;9.73;;;6.13;;
4517;SDS011;2271;49.464;11.070;2023-04-07T02:55:09;13.93;;;6.17;;
4517;SDS011;2271;49.464;11.070;2023-04-07T02:57:35;11.27;;;6.10;;
4517;SDS011;2271;49.464;11.070;2023-04-07T03:00:00;10.03;;;6.23;;
4517;SDS011;2271;49.464;11.070;2023-04-07T03:02:26;7.77;;;6.00;;
4517;SDS011;2271;49.464;11.070;2023-04-07T03:04:52;7.47;;;5.77;;
4517;SDS011;2271;49.464;11.070;2023-04-07T03:07:17;14.50;;;6.03;;
4517;SDS011;2271;49.464;11.070;2023-04-07T03:09:43;12.83;;;6.27;;
4517;SDS011;2271;49.464;11.070;2023-04-07T03:12:09;10.93;;;6.30;;
4517;SDS011;2271;49.464;11.070;2023-04-07T03:14:35;9.40;;;6.43;;
4517;SDS011;2271;49.464;11.070;2023-04-07T03:17:01;9.03;;;6.10;;
4517;SDS011;2271;49.464;11.070;2023-04-07T03:19:27;8.00;;;6.17;;
4517;SDS011;2271;49.464;11.070;2023-04-07T03:21:53;6.57;;;5.80;;
4517;SDS011;2271;49.464;11.070;2023-04-07T03:24:18;10.70;;;6.33;;
4517;SDS011;2271;49.464;11.070;2023-04-07T03:26:44;8.77;;;5.53;;
4517;SDS011;2271;49.464;11.070;2023-04-07T03:29:10;9.43;;;6.10;;
4517;SDS011;2271;49.464;11.070;2023-04-07T03:31:35;9.63;;;6.00;;
4517;SDS011;2271;49.464;11.070;2023-04-07T03:34:02;10.83;;;6.53;;
4517;SDS011;2271;49.464;11.070;2023-04-07T03:36:28;9.57;;;6.33;;
4517;SDS011;2271;49.464;11.070;2023-04-07T03:38:55;11.23;;;6.17;;
4517;SDS011;2271;49.464;11.070;2023-04-07T03:41:21;9.93;;;5.50;;
4517;SDS011;2271;49.464;11.070;2023-04-07T03:43:47;10.60;;;6.47;;
4517;SDS011;2271;49.464;11.070;2023-04-07T03:46:12;17.97;;;6.03;;
4517;SDS011;2271;49.464;11.070;2023-04-07T03:48:38;8.80;;;5.63;;
4517;SDS011;2271;49.464;11.070;2023-04-07T03:51:03;9.43;;;5.50;;
4517;SDS011;2271;49.464;11.070;2023-04-07T03:53:29;10.73;;;6.60;;
4517;SDS011;2271;49.464;11.070;2023-04-07T03:55:55;9.03;;;5.20;;
4517;SDS011;2271;49.464;11.070;2023-04-07T03:58:20;11.50;;;6.73;;
4517;SDS011;2271;49.464;11.070;2023-04-07T04:00:46;10.93;;;6.23;;
4517;SDS011;2271;49.464;11.070;2023-04-07T04:03:12;8.87;;;5.87;;
4517;SDS011;2271;49.464;11.070;2023-04-07T04:05:37;14.00;;;6.67;;
4517;SDS011;2271;49.464;11.070;2023-04-07T04:08:04;9.03;;;6.03;;
4517;SDS011;2271;49.464;11.070;2023-04-07T04:10:30;9.87;;;6.50;;
4517;SDS011;2271;49.464;11.070;2023-04-07T04:12:56;8.37;;;5.80;;
4517;SDS011;2271;49.464;11.070;2023-04-07T04:15:24;11.97;;;6.23;;
4517;SDS011;2271;49.464;11.070;2023-04-07T04:17:50;9.37;;;6.13;;
4517;SDS011;2271;49.464;11.070;2023-04-07T04:20:16;7.47;;;6.10;;
4517;SDS011;2271;49.464;11.070;2023-04-07T04:22:41;9.67;;;6.43;;
4517;SDS011;2271;49.464;11.070;2023-04-07T04:25:07;11.57;;;5.97;;
4517;SDS011;2271;49.464;11.070;2023-04-07T04:27:33;8.63;;;5.90;;
4517;SDS011;2271;49.464;11.070;2023-04-07T04:29:59;6.83;;;5.57;;
4517;SDS011;2271;49.464;11.070;2023-04-07T04:32:25;9.97;;;6.47;;
4517;SDS011;2271;49.464;11.070;2023-04-07T04:34:50;9.47;;;6.03;;
4517;SDS011;2271;49.464;11.070;2023-04-07T04:37:16;8.67;;;6.50;;
4517;SDS011;2271;49.464;11.070;2023-04-07T04:39:41;8.20;;;5.90;;
4517;SDS011;2271;49.464;11.070;2023-04-07T04:42:07;7.60;;;5.50;;
4517;SDS011;2271;49.464;11.070;2023-04-07T04:44:33;8.87;;;6.43;;
4517;SDS011;2271;49.464;11.070;2023-04-07T04:46:58;11.13;;;5.83;;
4517;SDS011;2271;49.464;11.070;2023-04-07T04:49:24;11.47;;;6.67;;
4517;SDS011;2271;49.464;11.070;2023-04-07T04:51:50;9.83;;;6.80;;
4517;SDS011;2271;49.464;11.070;2023-04-07T04:54:18;12.37;;;6.77;;
4517;SDS011;2271;49.464;11.070;2023-04-07T04:56:44;8.80;;;6.27;;
4517;SDS011;2271;49.464;11.070;2023-04-07T04:59:10;10.00;;;5.87;;
4517;SDS011;2271;49.464;11.070;2023-04-07T05:01:35;8.37;;;5.93;;
4517;SDS011;2271;49.464;11.070;2023-04-07T05:04:01;8.83;;;6.00;;
4517;SDS011;2271;49.464;11.070;2023-04-07T05:06:27;8.50;;;6.43;;
4517;SDS011;2271;49.464;11.070;2023-04-07T05:08:52;11.47;;;6.47;;
4517;SDS011;2271;49.464;11.070;2023-04-07T05:11:18;8.43;;;6.30;;
4517;SDS011;2271;49.464;11.070;2023-04-07T05:13:45;14.17;;;6.97;;
4517;SDS011;2271;49.464;11.070;2023-04-07T05:16:11;8.83;;;5.93;;
4517;SDS011;2271;49.464;11.070;2023-04-07T05:18:37;9.07;;;6.17;;
4517;SDS011;2271;49.464;11.070;2023-04-07T05:21:02;7.60;;;5.77;;
4517;SDS011;2271;49.464;11.070;2023-04-07T05:23:28;9.83;;;7.00;;
4517;SDS011;2271;49.464;11.070;2023-04-07T05:25:54;10.43;;;7.20;;
4517;SDS011;2271;49.464;11.070;2023-04-07T05:28:20;9.70;;;6.53;;
4517;SDS011;2271;49.464;11.070;2023-04-07T05:30:46;8.23;;;6.00;;
4517;SDS011;2271;49.464;11.070;2023-04-07T05:33:12;8.83;;;6.80;;
4517;SDS011;2271;49.464;11.070;2023-04-07T05:35:38;6.83;;;5.70;;
4517;SDS011;2271;49.464;11.070;2023-04-07T05:38:03;9.13;;;6.37;;
4517;SDS011;2271;49.464;11.070;2023-04-07T05:40:29;14.20;;;6.73;;
4517;SDS011;2271;49.464;11.070;2023-04-07T05:42:55;9.17;;;5.80;;
4517;SDS011;2271;49.464;11.070;2023-04-07T05:45:20;12.07;;;6.53;;
4517;SDS011;2271;49.464;11.070;2023-04-07T05:47:47;8.80;;;6.37;;
4517;SDS011;2271;49.464;11.070;2023-04-07T05:50:15;8.87;;;6.37;;
4517;SDS011;2271;49.464;11.070;2023-04-07T05:52:42;9.13;;;6.67;;
4517;SDS011;2271;49.464;11.070;2023-04-07T05:55:07;9.60;;;6.07;;
4517;SDS011;2271;49.464;11.070;2023-04-07T05:57:33;11.17;;;7.00;;
4517;SDS011;2271;49.464;11.070;2023-04-07T05:59:59;8.60;;;5.87;;
4517;SDS011;2271;49.464;11.070;2023-04-07T06:02:25;11.20;;;6.20;;
4517;SDS011;2271;49.464;11.070;2023-04-07T06:04:50;9.13;;;6.60;;
4517;SDS011;2271;49.464;11.070;2023-04-07T06:07:16;7.87;;;5.73;;
4517;SDS011;2271;49.464;11.070;2023-04-07T06:09:42;10.93;;;6.87;;
4517;SDS011;2271;49.464;11.070;2023-04-07T06:12:08;8.63;;;6.77;;
4517;SDS011;2271;49.464;11.070;2023-04-07T06:14:34;11.43;;;7.17;;
4517;SDS011;2271;49.464;11.070;2023-04-07T06:17:00;8.20;;;6.50;;
4517;SDS011;2271;49.464;11.070;2023-04-07T06:19:26;8.30;;;6.83;;
4517;SDS011;2271;49.464;11.070;2023-04-07T06:21:52;7.67;;;5.73;;
4517;SDS011;2271;49.464;11.070;2023-04-07T06:24:17;8.90;;;6.73;;
4517;SDS011;2271;49.464;11.070;2023-04-07T06:26:46;8.67;;;6.37;;
4517;SDS011;2271;49.464;11.070;2023-04-07T06:29:12;8.67;;;6.63;;
4517;SDS011;2271;49.464;11.070;2023-04-07T06:31:38;9.03;;;6.60;;
4517;SDS011;2271;49.464;11.070;2023-04-07T06:34:04;11.20;;;7.40;;
4517;SDS011;2271;49.464;11.070;2023-04-07T06:36:30;11.77;;;7.07;;
4517;SDS011;2271;49.464;11.070;2023-04-07T06:38:57;8.17;;;6.50;;
4517;SDS011;2271;49.464;11.070;2023-04-07T06:41:22;10.77;;;7.10;;
4517;SDS011;2271;49.464;11.070;2023-04-07T06:43:48;10.17;;;7.40;;
4517;SDS011;2271;49.464;11.070;2023-04-07T06:46:15;8.70;;;6.80;;
4517;SDS011;2271;49.464;11.070;2023-04-07T06:48:41;9.00;;;7.00;;
4517;SDS011;2271;49.464;11.070;2023-04-07T06:51:07;13.17;;;7.17;;
4517;SDS011;2271;49.464;11.070;2023-04-07T06:53:32;11.20;;;7.67;;
4517;SDS011;2271;49.464;11.070;2023-04-07T06:56:05;14.40;;;7.10;;
4517;SDS011;2271;49.464;11.070;2023-04-07T06:58:31;10.47;;;7.43;;
4517;SDS011;2271;49.464;11.070;2023-04-07T07:00:57;10.93;;;6.50;;
4517;SDS011;2271;49.464;11.070;2023-04-07T07:03:23;9.30;;;6.97;;
4517;SDS011;2271;49.464;11.070;2023-04-07T07:05:51;11.57;;;6.87;;
4517;SDS011;2271;49.464;11.070;2023-04-07T07:08:21;12.27;;;7.07;;
4517;SDS011;2271;49.464;11.070;2023-04-07T07:10:46;10.20;;;6.80;;
4517;SDS011;2271;49.464;11.070;2023-04-07T07:13:12;10.87;;;6.83;;
4517;SDS011;2271;49.464;11.070;2023-04-07T07:15:38;10.33;;;7.10;;
4517;SDS011;2271;49.464;11.070;2023-04-07T07:18:03;9.57;;;7.13;;
4517;SDS011;2271;49.464;11.070;2023-04-07T07:20:29;9.90;;;6.77;;
4517;SDS011;2271;49.464;11.070;2023-04-07T07:22:55;11.93;;;7.57;;
4517;SDS011;2271;49.464;11.070;2023-04-07T07:25:21;10.70;;;7.90;;
4517;SDS011;2271;49.464;11.070;2023-04-07T07:27:46;9.87;;;7.17;;
4517;SDS011;2271;49.464;11.070;2023-04-07T07:30:17;11.73;;;8.27;;
4517;SDS011;2271;49.464;11.070;2023-04-07T07:32:46;11.83;;;7.60;;
4517;SDS011;2271;49.464;11.070;2023-04-07T07:35:12;9.93;;;7.57;;
4517;SDS011;2271;49.464;11.070;2023-04-07T07:37:38;8.60;;;4.75;;
4517;SDS011;2271;49.464;11.070;2023-04-07T07:40:04;13.70;;;7.60;;
4517;SDS011;2271;49.464;11.070;2023-04-07T07:42:30;13.88;;;8.45;;
4517;SDS011;2271;49.464;11.070;2023-04-07T07:44:56;12.00;;;7.88;;
4517;SDS011;2271;49.464;11.070;2023-04-07T07:47:22;12.95;;;7.90;;
4517;SDS011;2271;49.464;11.070;2023-04-07T07:49:48;12.27;;;8.57;;
4517;SDS011;2271;49.464;11.070;2023-04-07T07:52:14;9.95;;;6.93;;
4517;SDS011;2271;49.464;11.070;2023-04-07T07:54:40;11.75;;;7.97;;
4517;SDS011;2271;49.464;11.070;2023-04-07T07:57:06;10.93;;;7.60;;
4517;SDS011;2271;49.464;11.070;2023-04-07T07:59:31;11.30;;;7.60;;
4517;SDS011;2271;49.464;11.070;2023-04-07T08:01:57;13.57;;;8.20;;
4517;SDS011;2271;49.464;11.070;2023-04-07T08:04:23;11.70;;;7.90;;
4517;SDS011;2271;49.464;11.070;2023-04-07T08:06:49;14.63;;;7.00;;
4517;SDS011;2271;49.464;11.070;2023-04-07T08:09:16;13.03;;;7.53;;
4517;SDS011;2271;49.464;11.070;2023-04-07T08:11:42;11.47;;;7.90;;
4517;SDS011;2271;49.464;11.070;2023-04-07T08:14:08;16.23;;;7.50;;
4517;SDS011;2271;49.464;11.070;2023-04-07T08:16:34;14.57;;;8.32;;
4517;SDS011;2271;49.464;11.070;2023-04-07T08:19:00;12.05;;;7.50;;
4517;SDS011;2271;49.464;11.070;2023-04-07T08:21:25;11.60;;;6.88;;
4517;SDS011;2271;49.464;11.070;2023-04-07T08:23:52;10.85;;;7.25;;
4517;SDS011;2271;49.464;11.070;2023-04-07T08:26:18;10.30;;;6.90;;
4517;SDS011;2271;49.464;11.070;2023-04-07T08:28:45;12.10;;;7.20;;
4517;SDS011;2271;49.464;11.070;2023-04-07T08:31:11;12.57;;;7.00;;
4517;SDS011;2271;49.464;11.070;2023-04-07T08:33:36;13.20;;;7.37;;
4517;SDS011;2271;49.464;11.070;2023-04-07T08:36:02;9.38;;;6.53;;
4517;SDS011;2271;49.464;11.070;2023-04-07T08:38:28;10.27;;;6.93;;
4517;SDS011;2271;49.464;11.070;2023-04-07T08:41:01;10.52;;;6.68;;
4517;SDS011;2271;49.464;11.070;2023-04-07T08:43:30;8.40;;;6.57;;
4517;SDS011;2271;49.464;11.070;2023-04-07T08:45:57;8.57;;;7.00;;
4517;SDS011;2271;49.464;11.070;2023-04-07T08:48:23;10.65;;;7.03;;
4517;SDS011;2271;49.464;11.070;2023-04-07T08:50:51;10.13;;;7.10;;
4517;SDS011;2271;49.464;11.070;2023-04-07T08:53:18;10.07;;;7.40;;
4517;SDS011;2271;49.464;11.070;2023-04-07T08:55:52;8.93;;;6.67;;
4517;SDS011;2271;49.464;11.070;2023-04-07T08:58:19;8.77;;;6.83;;
4517;SDS011;2271;49.464;11.070;2023-04-07T09:00:45;9.87;;;6.97;;
4517;SDS011;2271;49.464;11.070;2023-04-07T09:03:13;12.00;;;7.40;;
4517;SDS011;2271;49.464;11.070;2023-04-07T09:05:40;9.50;;;6.33;;
4517;SDS011;2271;49.464;11.070;2023-04-07T09:08:08;10.33;;;7.00;;
4517;SDS011;2271;49.464;11.070;2023-04-07T09:10:35;16.63;;;6.68;;
4517;SDS011;2271;49.464;11.070;2023-04-07T09:13:00;11.07;;;7.20;;
4517;SDS011;2271;49.464;11.070;2023-04-07T09:15:29;10.53;;;7.47;;
4517;SDS011;2271;49.464;11.070;2023-04-07T09:17:58;8.77;;;7.13;;
4517;SDS011;2271;49.464;11.070;2023-04-07T09:20:24;11.18;;;7.20;;
4517;SDS011;2271;49.464;11.070;2023-04-07T09:22:50;10.05;;;7.00;;
4517;SDS011;2271;49.464;11.070;2023-04-07T09:25:16;9.23;;;6.07;;
4517;SDS011;2271;49.464;11.070;2023-04-07T09:27:54;9.90;;;6.90;;
4517;SDS011;2271;49.464;11.070;2023-04-07T09:30:21;10.80;;;7.25;;
4517;SDS011;2271;49.464;11.070;2023-04-07T09:32:47;10.73;;;7.43;;
4517;SDS011;2271;49.464;11.070;2023-04-07T09:35:12;9.98;;;7.28;;
4517;SDS011;2271;49.464;11.070;2023-04-07T09:37:38;9.18;;;7.25;;
4517;SDS011;2271;49.464;11.070;2023-04-07T09:40:04;9.85;;;7.80;;
4517;SDS011;2271;49.464;11.070;2023-04-07T09:42:31;10.52;;;7.57;;
4517;SDS011;2271;49.464;11.070;2023-04-07T09:44:59;9.77;;;7.30;;
4517;SDS011;2271;49.464;11.070;2023-04-07T09:47:26;13.18;;;7.45;;
4517;SDS011;2271;49.464;11.070;2023-04-07T09:49:55;11.45;;;7.80;;
4517;SDS011;2271;49.464;11.070;2023-04-07T09:52:23;11.75;;;7.75;;
4517;SDS011;2271;49.464;11.070;2023-04-07T09:54:50;8.90;;;6.90;;
4517;SDS011;2271;49.464;11.070;2023-04-07T09:57:18;10.05;;;6.95;;
4517;SDS011;2271;49.464;11.070;2023-04-07T09:59:45;12.25;;;7.53;;
4517;SDS011;2271;49.464;11.070;2023-04-07T10:02:12;11.18;;;7.53;;
4517;SDS011;2271;49.464;11.070;2023-04-07T10:04:38;9.73;;;7.05;;
4517;SDS011;2271;49.464;11.070;2023-04-07T10:07:05;9.75;;;6.90;;
4517;SDS011;2271;49.464;11.070;2023-04-07T10:09:31;11.80;;;7.43;;
4517;SDS011;2271;49.464;11.070;2023-04-07T10:11:57;9.07;;;7.15;;
4517;SDS011;2271;49.464;11.070;2023-04-07T10:14:27;9.60;;;6.97;;
4517;SDS011;2271;49.464;11.070;2023-04-07T10:16:55;9.63;;;6.88;;
4517;SDS011;2271;49.464;11.070;2023-04-07T10:19:21;12.68;;;7.82;;
4517;SDS011;2271;49.464;11.070;2023-04-07T10:21:50;11.95;;;7.78;;
4517;SDS011;2271;49.464;11.070;2023-04-07T10:25:03;8.80;;;6.70;;
4517;SDS011;2271;49.464;11.070;2023-04-07T10:27:13;10.90;;;7.28;;
4517;SDS011;2271;49.464;11.070;2023-04-07T10:29:43;10.88;;;7.35;;
4517;SDS011;2271;49.464;11.070;2023-04-07T10:32:13;11.90;;;7.60;;
4517;SDS011;2271;49.464;11.070;2023-04-07T10:37:14;10.52;;;7.63;;
4517;SDS011;2271;49.464;11.070;2023-04-07T10:39:46;10.23;;;7.68;;
4517;SDS011;2271;49.464;11.070;2023-04-07T10:45:09;11.02;;;7.50;;
4517;SDS011;2271;49.464;11.070;2023-04-07T10:48:08;9.75;;;7.50;;
4517;SDS011;2271;49.464;11.070;2023-04-07T10:50:28;9.32;;;7.97;;
4517;SDS011;2271;49.464;11.070;2023-04-07T10:53:12;8.77;;;7.13;;
4517;SDS011;2271;49.464;11.070;2023-04-07T10:55:44;13.15;;;8.00;;
4517;SDS011;2271;49.464;11.070;2023-04-07T11:03:25;9.65;;;7.75;;
4517;SDS011;2271;49.464;11.070;2023-04-07T11:06:01;12.65;;;7.80;;
4517;SDS011;2271;49.464;11.070;2023-04-07T11:08:32;10.80;;;7.72;;
4517;SDS011;2271;49.464;11.070;2023-04-07T11:10:58;9.85;;;7.75;;
4517;SDS011;2271;49.464;11.070;2023-04-07T11:13:23;10.93;;;7.53;;
4517;SDS011;2271;49.464;11.070;2023-04-07T11:15:50;10.85;;;8.70;;
4517;SDS011;2271;49.464;11.070;2023-04-07T11:18:19;12.20;;;8.60;;
4517;SDS011;2271;49.464;11.070;2023-04-07T11:23:13;9.18;;;7.30;;
4517;SDS011;2271;49.464;11.070;2023-04-07T11:25:41;10.70;;;7.28;;
4517;SDS011;2271;49.464;11.070;2023-04-07T11:28:08;11.57;;;8.40;;
4517;SDS011;2271;49.464;11.070;2023-04-07T11:30:36;10.57;;;7.95;;
4517;SDS011;2271;49.464;11.070;2023-04-07T11:33:02;9.88;;;7.80;;
4517;SDS011;2271;49.464;11.070;2023-04-07T11:35:28;11.02;;;7.43;;
4517;SDS011;2271;49.464;11.070;2023-04-07T11:37:56;10.43;;;7.32;;
4517;SDS011;2271;49.464;11.070;2023-04-07T11:40:35;10.82;;;8.23;;
4517;SDS011;2271;49.464;11.070;2023-04-07T11:43:02;11.07;;;7.65;;
4517;SDS011;2271;49.464;11.070;2023-04-07T11:45:39;11.30;;;7.30;;
4517;SDS011;2271;49.464;11.070;2023-04-07T11:48:24;9.68;;;6.70;;
4517;SDS011;2271;49.464;11.070;2023-04-07T11:50:50;7.88;;;6.95;;
4517;SDS011;2271;49.464;11.070;2023-04-07T11:53:25;8.25;;;6.60;;
4517;SDS011;2271;49.464;11.070;2023-04-07T11:58:33;10.18;;;7.78;;
4517;SDS011;2271;49.464;11.070;2023-04-07T12:01:00;9.93;;;7.28;;
4517;SDS011;2271;49.464;11.070;2023-04-07T12:03:29;8.05;;;6.82;;
4517;SDS011;2271;49.464;11.070;2023-04-07T12:05:54;8.85;;;7.07;;
4517;SDS011;2271;49.464;11.070;2023-04-07T12:08:20;12.85;;;7.80;;
4517;SDS011;2271;49.464;11.070;2023-04-07T12:10:47;9.40;;;7.90;;
4517;SDS011;2271;49.464;11.070;2023-04-07T12:13:12;8.18;;;7.32;;
4517;SDS011;2271;49.464;11.070;2023-04-07T12:15:39;10.98;;;7.22;;
4517;SDS011;2271;49.464;11.070;2023-04-07T12:18:04;10.57;;;7.90;;
4517;SDS011;2271;49.464;11.070;2023-04-07T12:20:30;10.25;;;7.43;;
4517;SDS011;2271;49.464;11.070;2023-04-07T12:22:56;10.10;;;7.88;;
4517;SDS011;2271;49.464;11.070;2023-04-07T12:25:24;10.85;;;7.85;;
4517;SDS011;2271;49.464;11.070;2023-04-07T12:27:50;11.77;;;7.93;;
4517;SDS011;2271;49.464;11.070;2023-04-07T12:30:15;11.15;;;7.68;;
4517;SDS011;2271;49.464;11.070;2023-04-07T12:32:41;10.18;;;7.60;;
4517;SDS011;2271;49.464;11.070;2023-04-07T12:35:07;9.43;;;7.28;;
4517;SDS011;2271;49.464;11.070;2023-04-07T12:37:32;14.77;;;8.00;;
4517;SDS011;2271;49.464;11.070;2023-04-07T12:39:58;10.60;;;7.47;;
4517;SDS011;2271;49.464;11.070;2023-04-07T12:42:24;10.57;;;7.97;;
4517;SDS011;2271;49.464;11.070;2023-04-07T12:44:50;11.60;;;8.07;;
4517;SDS011;2271;49.464;11.070;2023-04-07T12:47:15;11.55;;;7.78;;
4517;SDS011;2271;49.464;11.070;2023-04-07T12:49:41;9.07;;;7.10;;
4517;SDS011;2271;49.464;11.070;2023-04-07T12:52:07;12.23;;;7.65;;
4517;SDS011;2271;49.464;11.070;2023-04-07T12:54:32;9.82;;;7.53;;
4517;SDS011;2271;49.464;11.070;2023-04-07T12:56:59;9.63;;;8.27;;
4517;SDS011;2271;49.464;11.070;2023-04-07T12:59:24;12.05;;;6.90;;
4517;SDS011;2271;49.464;11.070;2023-04-07T13:01:50;12.10;;;6.97;;
4517;SDS011;2271;49.464;11.070;2023-04-07T13:04:16;10.02;;;7.55;;
4517;SDS011;2271;49.464;11.070;2023-04-07T13:06:42;9.10;;;8.07;;
4517;SDS011;2271;49.464;11.070;2023-04-07T13:09:08;9.90;;;7.05;;
4517;SDS011;2271;49.464;11.070;2023-04-07T13:11:33;9.73;;;7.95;;
4517;SDS011;2271;49.464;11.070;2023-04-07T13:14:00;8.95;;;6.97;;
4517;SDS011;2271;49.464;11.070;2023-04-07T13:16:26;10.63;;;8.57;;
4517;SDS011;2271;49.464;11.070;2023-04-07T13:18:52;8.10;;;7.20;;
4517;SDS011;2271;49.464;11.070;2023-04-07T13:21:18;9.88;;;8.23;;
4517;SDS011;2271;49.464;11.070;2023-04-07T13:23:43;8.00;;;7.20;;
4517;SDS011;2271;49.464;11.070;2023-04-07T13:26:10;11.88;;;7.97;;
4517;SDS011;2271;49.464;11.070;2023-04-07T13:28:35;13.18;;;8.18;;
4517;SDS011;2271;49.464;11.070;2023-04-07T13:31:01;9.55;;;7.57;;
4517;SDS011;2271;49.464;11.070;2023-04-07T13:33:27;10.15;;;7.70;;
4517;SDS011;2271;49.464;11.070;2023-04-07T13:35:53;10.85;;;7.95;;
4517;SDS011;2271;49.464;11.070;2023-04-07T13:38:18;10.65;;;8.48;;
4517;SDS011;2271;49.464;11.070;2023-04-07T13:40:44;11.38;;;8.18;;
4517;SDS011;2271;49.464;11.070;2023-04-07T13:43:13;9.27;;;6.18;;
4517;SDS011;2271;49.464;11.070;2023-04-07T13:45:39;16.13;;;5.38;;
4517;SDS011;2271;49.464;11.070;2023-04-07T13:48:05;9.13;;;5.68;;
4517;SDS011;2271;49.464;11.070;2023-04-07T13:50:31;13.88;;;6.75;;
4517;SDS011;2271;49.464;11.070;2023-04-07T13:52:56;14.45;;;7.30;;
4517;SDS011;2271;49.464;11.070;2023-04-07T13:55:22;13.52;;;7.03;;
4517;SDS011;2271;49.464;11.070;2023-04-07T13:57:47;10.32;;;7.57;;
4517;SDS011;2271;49.464;11.070;2023-04-07T14:00:13;18.90;;;6.90;;
4517;SDS011;2271;49.464;11.070;2023-04-07T14:02:39;9.32;;;7.50;;
4517;SDS011;2271;49.464;11.070;2023-04-07T14:05:05;7.82;;;5.90;;
4517;SDS011;2271;49.464;11.070;2023-04-07T14:07:30;14.25;;;7.78;;
4517;SDS011;2271;49.464;11.070;2023-04-07T14:09:56;9.25;;;7.55;;
4517;SDS011;2271;49.464;11.070;2023-04-07T14:12:22;9.00;;;6.60;;
4517;SDS011;2271;49.464;11.070;2023-04-07T14:14:48;10.25;;;7.20;;
4517;SDS011;2271;49.464;11.070;2023-04-07T14:17:18;8.75;;;7.28;;
4517;SDS011;2271;49.464;11.070;2023-04-07T14:19:44;8.73;;;6.47;;
4517;SDS011;2271;49.464;11.070;2023-04-07T14:22:10;8.65;;;6.78;;
4517;SDS011;2271;49.464;11.070;2023-04-07T14:24:37;7.18;;;5.55;;
4517;SDS011;2271;49.464;11.070;2023-04-07T14:27:03;7.65;;;6.30;;
4517;SDS011;2271;49.464;11.070;2023-04-07T14:29:29;6.68;;;4.78;;
4517;SDS011;2271;49.464;11.070;2023-04-07T14:31:55;6.00;;;5.20;;
4517;SDS011;2271;49.464;11.070;2023-04-07T14:34:21;10.00;;;6.70;;
4517;SDS011;2271;49.464;11.070;2023-04-07T14:36:53;6.85;;;5.70;;
4517;SDS011;2271;49.464;11.070;2023-04-07T14:39:20;6.10;;;5.50;;
4517;SDS011;2271;49.464;11.070;2023-04-07T14:41:46;6.97;;;5.03;;
4517;SDS011;2271;49.464;11.070;2023-04-07T14:44:12;7.45;;;4.90;;
4517;SDS011;2271;49.464;11.070;2023-04-07T14:46:38;6.13;;;4.80;;
4517;SDS011;2271;49.464;11.070;2023-04-07T14:49:03;6.75;;;5.88;;
4517;SDS011;2271;49.464;11.070;2023-04-07T14:51:29;9.05;;;6.95;;
4517;SDS011;2271;49.464;11.070;2023-04-07T14:53:55;8.82;;;6.90;;
4517;SDS011;2271;49.464;11.070;2023-04-07T14:56:21;8.63;;;7.05;;
4517;SDS011;2271;49.464;11.070;2023-04-07T14:58:48;11.73;;;7.05;;
4517;SDS011;2271;49.464;11.070;2023-04-07T15:01:14;9.75;;;7.15;;
4517;SDS011;2271;49.464;11.070;2023-04-07T15:03:40;7.55;;;6.28;;
4517;SDS011;2271;49.464;11.070;2023-04-07T15:06:10;10.00;;;7.53;;
4517;SDS011;2271;49.464;11.070;2023-04-07T15:08:37;11.50;;;8.40;;
4517;SDS011;2271;49.464;11.070;2023-04-07T15:11:04;10.43;;;7.88;;
4517;SDS011;2271;49.464;11.070;2023-04-07T15:13:31;8.07;;;6.78;;
4517;SDS011;2271;49.464;11.070;2023-04-07T15:16:04;8.60;;;6.93;;
4517;SDS011;2271;49.464;11.070;2023-04-07T15:18:31;8.77;;;6.88;;